sensor_id;sensor_type;location;lat;lon;timestamp;pressure;altitude;pressure_sealevel;temperature;humidity
68712;BME280;55690;51.566;19.198;2023-07-13T00:01:38;101220.27;;;21.69;96.08
68712;BME280;55690;51.566;19.198;2023-07-13T00:05:44;101228.42;;;21.62;96.11
68712;BME280;55690;51.566;19.198;2023-07-13T00:09:52;101231.69;;;21.49;97.38
68712;BME280;55690;51.566;19.198;2023-07-13T00:13:57;101233.92;;;21.38;97.48
68712;BME280;55690;51.566;19.198;2023-07-13T00:18:04;101227.68;;;21.19;97.98
68712;BME280;55690;51.566;19.198;2023-07-13T00:22:09;101230.44;;;21.19;97.03
68712;BME280;55690;51.566;19.198;2023-07-13T00:26:15;101222.69;;;21.23;97.39
68712;BME280;55690;51.566;19.198;2023-07-13T00:30:22;101224.06;;;21.19;97.82
68712;BME280;55690;51.566;19.198;2023-07-13T00:34:28;101220.41;;;21.10;98.48
68712;BME280;55690;51.566;19.198;2023-07-13T00:38:34;101236.98;;;21.10;98.08
68712;BME280;55690;51.566;19.198;2023-07-13T00:42:40;101243.35;;;21.03;98.56
68712;BME280;55690;51.566;19.198;2023-07-13T00:46:46;101249.54;;;20.97;99.53
68712;BME280;55690;51.566;19.198;2023-07-13T00:50:56;101246.27;;;21.01;98.47
68712;BME280;55690;51.566;19.198;2023-07-13T00:54:59;101243.37;;;21.11;97.52
68712;BME280;55690;51.566;19.198;2023-07-13T00:59:06;101240.22;;;20.98;99.89
68712;BME280;55690;51.566;19.198;2023-07-13T01:03:11;101241.56;;;20.77;99.66
68712;BME280;55690;51.566;19.198;2023-07-13T01:07:18;101233.64;;;20.90;98.16
68712;BME280;55690;51.566;19.198;2023-07-13T01:11:23;101225.70;;;20.87;98.33
68712;BME280;55690;51.566;19.198;2023-07-13T01:15:36;101218.84;;;21.00;98.52
68712;BME280;55690;51.566;19.198;2023-07-13T01:19:41;101219.65;;;20.84;98.57
68712;BME280;55690;51.566;19.198;2023-07-13T01:23:43;101228.87;;;21.09;97.62
68712;BME280;55690;51.566;19.198;2023-07-13T01:27:48;101233.72;;;21.15;96.29
68712;BME280;55690;51.566;19.198;2023-07-13T01:31:54;101235.06;;;21.03;96.59
68712;BME280;55690;51.566;19.198;2023-07-13T01:36:00;101236.11;;;21.10;96.45
68712;BME280;55690;51.566;19.198;2023-07-13T01:40:07;101238.13;;;20.91;97.04
68712;BME280;55690;51.566;19.198;2023-07-13T01:44:12;101229.13;;;20.81;97.22
68712;BME280;55690;51.566;19.198;2023-07-13T01:48:19;101234.85;;;20.88;96.70
68712;BME280;55690;51.566;19.198;2023-07-13T01:52:25;101238.60;;;20.71;96.93
68712;BME280;55690;51.566;19.198;2023-07-13T01:56:31;101241.20;;;20.80;97.38
68712;BME280;55690;51.566;19.198;2023-07-13T02:00:37;101227.40;;;20.72;96.81
68712;BME280;55690;51.566;19.198;2023-07-13T02:04:43;101221.38;;;20.85;96.49
68712;BME280;55690;51.566;19.198;2023-07-13T02:08:49;101214.27;;;20.66;97.88
68712;BME280;55690;51.566;19.198;2023-07-13T02:12:56;101213.09;;;20.77;97.05
68712;BME280;55690;51.566;19.198;2023-07-13T02:17:02;101201.70;;;20.80;96.52
68712;BME280;55690;51.566;19.198;2023-07-13T02:21:08;101203.61;;;20.87;96.92
68712;BME280;55690;51.566;19.198;2023-07-13T02:25:14;101203.28;;;20.90;97.23
68712;BME280;55690;51.566;19.198;2023-07-13T02:29:20;101193.81;;;21.01;96.49
68712;BME280;55690;51.566;19.198;2023-07-13T02:33:26;101206.91;;;20.91;96.48
68712;BME280;55690;51.566;19.198;2023-07-13T02:37:33;101214.13;;;20.76;97.49
68712;BME280;55690;51.566;19.198;2023-07-13T02:41:39;101213.58;;;20.64;97.92
68712;BME280;55690;51.566;19.198;2023-07-13T02:45:45;101215.86;;;20.85;97.19
68712;BME280;55690;51.566;19.198;2023-07-13T02:49:51;101206.91;;;20.91;97.33
68712;BME280;55690;51.566;19.198;2023-07-13T02:53:57;101208.80;;;20.90;97.14
68712;BME280;55690;51.566;19.198;2023-07-13T02:58:03;101215.16;;;20.75;98.16
68712;BME280;55690;51.566;19.198;2023-07-13T03:02:10;101199.67;;;20.98;97.31
68712;BME280;55690;51.566;19.198;2023-07-13T03:06:16;101219.49;;;20.77;98.46
68712;BME280;55690;51.566;19.198;2023-07-13T03:10:22;101220.22;;;21.04;97.12
68712;BME280;55690;51.566;19.198;2023-07-13T03:14:28;101219.05;;;21.14;97.10
68712;BME280;55690;51.566;19.198;2023-07-13T03:18:35;101216.50;;;21.21;97.25
68712;BME280;55690;51.566;19.198;2023-07-13T03:22:40;101213.36;;;21.24;97.92
68712;BME280;55690;51.566;19.198;2023-07-13T03:26:46;101213.88;;;21.28;97.64
68712;BME280;55690;51.566;19.198;2023-07-13T03:30:59;101222.51;;;21.24;98.40
68712;BME280;55690;51.566;19.198;2023-07-13T03:35:01;101238.75;;;21.28;98.58
68712;BME280;55690;51.566;19.198;2023-07-13T03:39:05;101241.87;;;21.33;97.25
68712;BME280;55690;51.566;19.198;2023-07-13T03:43:11;101245.67;;;21.40;97.92
68712;BME280;55690;51.566;19.198;2023-07-13T03:47:18;101246.89;;;21.45;98.85
68712;BME280;55690;51.566;19.198;2023-07-13T03:51:24;101249.48;;;21.47;98.62
68712;BME280;55690;51.566;19.198;2023-07-13T03:55:30;101252.41;;;21.45;98.56
68712;BME280;55690;51.566;19.198;2023-07-13T03:59:36;101254.14;;;21.46;99.87
68712;BME280;55690;51.566;19.198;2023-07-13T04:03:43;101246.89;;;21.53;99.69
68712;BME280;55690;51.566;19.198;2023-07-13T04:07:48;101251.05;;;21.66;99.76
68712;BME280;55690;51.566;19.198;2023-07-13T04:11:54;101260.53;;;21.47;100.00
68712;BME280;55690;51.566;19.198;2023-07-13T04:16:01;101257.23;;;21.68;100.00
68712;BME280;55690;51.566;19.198;2023-07-13T04:20:07;101252.75;;;21.75;99.98
68712;BME280;55690;51.566;19.198;2023-07-13T04:24:13;101250.84;;;21.91;100.00
68712;BME280;55690;51.566;19.198;2023-07-13T04:28:21;101245.32;;;22.08;99.83
68712;BME280;55690;51.566;19.198;2023-07-13T04:32:25;101253.09;;;21.72;100.00
68712;BME280;55690;51.566;19.198;2023-07-13T04:36:31;101251.36;;;21.87;100.00
68712;BME280;55690;51.566;19.198;2023-07-13T04:40:37;101244.93;;;22.19;99.95
68712;BME280;55690;51.566;19.198;2023-07-13T04:44:50;101249.43;;;22.12;100.00
68712;BME280;55690;51.566;19.198;2023-07-13T04:48:52;101253.53;;;22.40;100.00
68712;BME280;55690;51.566;19.198;2023-07-13T04:52:56;101267.52;;;22.47;100.00
68712;BME280;55690;51.566;19.198;2023-07-13T04:57:05;101268.88;;;22.51;100.00
68712;BME280;55690;51.566;19.198;2023-07-13T05:01:09;101280.56;;;22.69;100.00
68712;BME280;55690;51.566;19.198;2023-07-13T05:05:15;101288.69;;;22.71;100.00
68712;BME280;55690;51.566;19.198;2023-07-13T05:09:21;101287.55;;;22.96;100.00
68712;BME280;55690;51.566;19.198;2023-07-13T05:13:27;101283.98;;;23.18;99.96
68712;BME280;55690;51.566;19.198;2023-07-13T05:17:33;101281.34;;;23.48;99.06
68712;BME280;55690;51.566;19.198;2023-07-13T05:21:39;101294.45;;;23.62;97.83
68712;BME280;55690;51.566;19.198;2023-07-13T05:25:45;101281.22;;;23.41;98.51
68712;BME280;55690;51.566;19.198;2023-07-13T05:29:52;101279.23;;;23.58;98.81
68712;BME280;55690;51.566;19.198;2023-07-13T05:33:58;101273.95;;;23.86;95.89
68712;BME280;55690;51.566;19.198;2023-07-13T05:38:04;101272.30;;;24.14;95.08
68712;BME280;55690;51.566;19.198;2023-07-13T05:42:10;101281.27;;;24.54;93.04
68712;BME280;55690;51.566;19.198;2023-07-13T05:46:16;101270.45;;;24.59;91.99
68712;BME280;55690;51.566;19.198;2023-07-13T05:50:22;101271.00;;;24.99;89.87
68712;BME280;55690;51.566;19.198;2023-07-13T05:54:28;101274.15;;;25.32;89.82
68712;BME280;55690;51.566;19.198;2023-07-13T05:58:37;101267.06;;;25.29;88.11
68712;BME280;55690;51.566;19.198;2023-07-13T06:02:41;101268.46;;;25.61;87.51
68712;BME280;55690;51.566;19.198;2023-07-13T06:06:47;101270.41;;;26.10;85.46
68712;BME280;55690;51.566;19.198;2023-07-13T06:10:53;101280.95;;;26.14;85.44
68712;BME280;55690;51.566;19.198;2023-07-13T06:14:59;101281.86;;;26.22;84.73
68712;BME280;55690;51.566;19.198;2023-07-13T06:19:05;101276.70;;;25.91;84.91
68712;BME280;55690;51.566;19.198;2023-07-13T06:23:11;101277.05;;;26.09;83.42
68712;BME280;55690;51.566;19.198;2023-07-13T06:27:18;101270.77;;;26.00;82.17
68712;BME280;55690;51.566;19.198;2023-07-13T06:31:24;101267.84;;;26.08;83.95
68712;BME280;55690;51.566;19.198;2023-07-13T06:35:30;101269.32;;;26.67;83.05
68712;BME280;55690;51.566;19.198;2023-07-13T06:39:36;101268.88;;;26.63;82.81
68712;BME280;55690;51.566;19.198;2023-07-13T06:43:42;101267.28;;;26.47;83.86
68712;BME280;55690;51.566;19.198;2023-07-13T06:47:48;101264.63;;;26.33;83.23
68712;BME280;55690;51.566;19.198;2023-07-13T06:51:55;101283.79;;;26.21;83.06
68712;BME280;55690;51.566;19.198;2023-07-13T06:56:01;101297.53;;;26.01;84.97
68712;BME280;55690;51.566;19.198;2023-07-13T07:00:08;101291.27;;;25.93;84.47
68712;BME280;55690;51.566;19.198;2023-07-13T07:04:13;101298.09;;;25.90;87.29
68712;BME280;55690;51.566;19.198;2023-07-13T07:08:19;101308.84;;;25.93;87.07
68712;BME280;55690;51.566;19.198;2023-07-13T07:12:25;101329.77;;;25.89;87.18
68712;BME280;55690;51.566;19.198;2023-07-13T07:16:32;101351.69;;;25.77;88.50
68712;BME280;55690;51.566;19.198;2023-07-13T07:20:38;101350.37;;;25.73;88.52
68712;BME280;55690;51.566;19.198;2023-07-13T07:24:44;101372.59;;;25.37;88.66
68712;BME280;55690;51.566;19.198;2023-07-13T07:28:50;101389.40;;;25.14;90.02
68712;BME280;55690;51.566;19.198;2023-07-13T07:32:56;101420.80;;;24.85;93.20
68712;BME280;55690;51.566;19.198;2023-07-13T07:37:03;101448.98;;;24.22;96.14
68712;BME280;55690;51.566;19.198;2023-07-13T07:41:09;101448.89;;;23.45;95.67
68712;BME280;55690;51.566;19.198;2023-07-13T07:45:15;101458.09;;;22.66;96.79
68712;BME280;55690;51.566;19.198;2023-07-13T07:49:21;101469.17;;;22.17;97.65
68712;BME280;55690;51.566;19.198;2023-07-13T07:53:27;101475.60;;;21.68;97.24
68712;BME280;55690;51.566;19.198;2023-07-13T07:57:33;101498.79;;;21.75;98.04
68712;BME280;55690;51.566;19.198;2023-07-13T08:01:40;101492.02;;;21.27;99.71
68712;BME280;55690;51.566;19.198;2023-07-13T08:05:45;101488.31;;;21.44;99.04
68712;BME280;55690;51.566;19.198;2023-07-13T08:09:53;101470.04;;;21.51;97.57
68712;BME280;55690;51.566;19.198;2023-07-13T08:13:58;101464.52;;;21.51;97.69
68712;BME280;55690;51.566;19.198;2023-07-13T08:18:04;101461.26;;;21.56;97.79
68712;BME280;55690;51.566;19.198;2023-07-13T08:22:10;101429.12;;;21.55;96.09
68712;BME280;55690;51.566;19.198;2023-07-13T08:26:16;101463.38;;;21.78;98.37
68712;BME280;55690;51.566;19.198;2023-07-13T08:30:22;101487.36;;;21.62;98.47
68712;BME280;55690;51.566;19.198;2023-07-13T08:34:29;101498.75;;;21.67;98.86
68712;BME280;55690;51.566;19.198;2023-07-13T08:38:35;101498.38;;;21.53;98.69
68712;BME280;55690;51.566;19.198;2023-07-13T08:42:46;101505.84;;;21.69;98.56
68712;BME280;55690;51.566;19.198;2023-07-13T08:46:53;101516.04;;;21.69;97.61
68712;BME280;55690;51.566;19.198;2023-07-13T08:51:24;101513.19;;;21.44;98.29
68712;BME280;55690;51.566;19.198;2023-07-13T08:55:15;101514.22;;;21.43;98.52
68712;BME280;55690;51.566;19.198;2023-07-13T08:59:21;101508.77;;;21.60;97.49
68712;BME280;55690;51.566;19.198;2023-07-13T09:03:31;101503.16;;;21.43;96.74
68712;BME280;55690;51.566;19.198;2023-07-13T09:12:00;101492.84;;;21.53;99.68
68712;BME280;55690;51.566;19.198;2023-07-13T09:16:04;101485.63;;;21.69;98.30
68712;BME280;55690;51.566;19.198;2023-07-13T09:20:19;101481.35;;;21.82;98.25
68712;BME280;55690;51.566;19.198;2023-07-13T09:28:45;101481.99;;;21.68;98.04
68712;BME280;55690;51.566;19.198;2023-07-13T09:32:52;101475.94;;;21.56;99.83
68712;BME280;55690;51.566;19.198;2023-07-13T09:36:54;101475.80;;;21.74;99.08
68712;BME280;55690;51.566;19.198;2023-07-13T09:41:13;101476.30;;;21.70;100.00
68712;BME280;55690;51.566;19.198;2023-07-13T09:45:17;101463.88;;;21.74;100.00
68712;BME280;55690;51.566;19.198;2023-07-13T09:49:27;101477.76;;;21.90;100.00
68712;BME280;55690;51.566;19.198;2023-07-13T09:53:30;101481.23;;;22.00;99.24
68712;BME280;55690;51.566;19.198;2023-07-13T09:57:32;101479.34;;;22.01;99.05
68712;BME280;55690;51.566;19.198;2023-07-13T10:01:36;101471.77;;;22.03;98.91
68712;BME280;55690;51.566;19.198;2023-07-13T10:05:41;101480.92;;;22.11;100.00
68712;BME280;55690;51.566;19.198;2023-07-13T10:09:43;101485.94;;;22.16;99.36
68712;BME280;55690;51.566;19.198;2023-07-13T10:14:02;101473.66;;;22.10;99.52
68712;BME280;55690;51.566;19.198;2023-07-13T10:18:00;101479.55;;;22.15;100.00
68712;BME280;55690;51.566;19.198;2023-07-13T10:30:32;101479.03;;;22.04;100.00
68712;BME280;55690;51.566;19.198;2023-07-13T10:34:35;101471.21;;;21.99;100.00
68712;BME280;55690;51.566;19.198;2023-07-13T10:38:38;101465.67;;;21.99;100.00
68712;BME280;55690;51.566;19.198;2023-07-13T10:42:42;101452.25;;;22.04;100.00
68712;BME280;55690;51.566;19.198;2023-07-13T10:46:46;101469.37;;;22.32;100.00
68712;BME280;55690;51.566;19.198;2023-07-13T10:50:49;101456.07;;;22.44;100.00
68712;BME280;55690;51.566;19.198;2023-07-13T10:54:54;101456.55;;;22.55;100.00
68712;BME280;55690;51.566;19.198;2023-07-13T10:59:13;101472.32;;;22.47;99.19
68712;BME280;55690;51.566;19.198;2023-07-13T11:03:18;101471.43;;;22.63;100.00
68712;BME280;55690;51.566;19.198;2023-07-13T11:07:28;101465.89;;;22.54;100.00
68712;BME280;55690;51.566;19.198;2023-07-13T11:11:36;101464.02;;;22.47;100.00
68712;BME280;55690;51.566;19.198;2023-07-13T11:15:45;101452.77;;;22.40;100.00
68712;BME280;55690;51.566;19.198;2023-07-13T11:19:51;101448.92;;;22.74;100.00
68712;BME280;55690;51.566;19.198;2023-07-13T11:24:14;101448.59;;;22.69;100.00
68712;BME280;55690;51.566;19.198;2023-07-13T11:28:17;101443.57;;;22.72;100.00
68712;BME280;55690;51.566;19.198;2023-07-13T11:32:25;101442.54;;;22.81;100.00
68712;BME280;55690;51.566;19.198;2023-07-13T11:36:32;101447.67;;;23.01;100.00
68712;BME280;55690;51.566;19.198;2023-07-13T11:40:38;101440.13;;;22.78;99.64
68712;BME280;55690;51.566;19.198;2023-07-13T11:44:47;101443.86;;;23.02;95.56
68712;BME280;55690;51.566;19.198;2023-07-13T11:48:50;101448.67;;;23.16;100.00
68712;BME280;55690;51.566;19.198;2023-07-13T11:52:54;101441.17;;;23.33;100.00
68712;BME280;55690;51.566;19.198;2023-07-13T11:57:12;101451.93;;;23.28;100.00
68712;BME280;55690;51.566;19.198;2023-07-13T12:01:18;101451.66;;;23.53;100.00
68712;BME280;55690;51.566;19.198;2023-07-13T12:05:21;101445.94;;;23.47;100.00
68712;BME280;55690;51.566;19.198;2023-07-13T12:09:27;101472.77;;;23.63;100.00
68712;BME280;55690;51.566;19.198;2023-07-13T12:13:29;101471.80;;;23.39;100.00
68712;BME280;55690;51.566;19.198;2023-07-13T12:17:30;101460.66;;;23.47;100.00
68712;BME280;55690;51.566;19.198;2023-07-13T12:21:37;101488.02;;;23.50;100.00
68712;BME280;55690;51.566;19.198;2023-07-13T12:25:39;101500.96;;;23.74;100.00
68712;BME280;55690;51.566;19.198;2023-07-13T12:29:50;101489.19;;;23.72;100.00
68712;BME280;55690;51.566;19.198;2023-07-13T12:34:00;101483.02;;;23.85;100.00
68712;BME280;55690;51.566;19.198;2023-07-13T12:38:02;101488.56;;;23.46;100.00
68712;BME280;55690;51.566;19.198;2023-07-13T12:46:23;101465.66;;;23.91;100.00
68712;BME280;55690;51.566;19.198;2023-07-13T12:50:30;101478.15;;;24.18;98.66
68712;BME280;55690;51.566;19.198;2023-07-13T12:54:39;101491.14;;;24.26;99.95
68712;BME280;55690;51.566;19.198;2023-07-13T12:58:42;101486.24;;;24.28;99.52
68712;BME280;55690;51.566;19.198;2023-07-13T13:02:49;101487.23;;;24.35;98.87
68712;BME280;55690;51.566;19.198;2023-07-13T13:11:04;101486.55;;;24.56;100.00
68712;BME280;55690;51.566;19.198;2023-07-13T13:15:08;101478.64;;;24.67;99.94
68712;BME280;55690;51.566;19.198;2023-07-13T13:19:33;101490.80;;;24.66;99.78
68712;BME280;55690;51.566;19.198;2023-07-13T13:23:25;101490.13;;;24.64;97.37
68712;BME280;55690;51.566;19.198;2023-07-13T13:27:26;101488.16;;;24.50;95.93
68712;BME280;55690;51.566;19.198;2023-07-13T13:31:28;101491.14;;;24.26;98.35
68712;BME280;55690;51.566;19.198;2023-07-13T13:35:29;101493.04;;;24.48;97.16
68712;BME280;55690;51.566;19.198;2023-07-13T13:39:38;101494.32;;;24.37;96.75
68712;BME280;55690;51.566;19.198;2023-07-13T13:43:41;101497.59;;;24.64;96.34
68712;BME280;55690;51.566;19.198;2023-07-13T13:47:44;101489.34;;;24.70;96.65
68712;BME280;55690;51.566;19.198;2023-07-13T13:51:45;101493.71;;;24.87;94.81
68712;BME280;55690;51.566;19.198;2023-07-13T13:55:47;101490.14;;;25.02;91.13
68712;BME280;55690;51.566;19.198;2023-07-13T13:59:48;101493.09;;;25.15;91.75
68712;BME280;55690;51.566;19.198;2023-07-13T14:03:51;101503.95;;;24.87;92.01
68712;BME280;55690;51.566;19.198;2023-07-13T14:07:53;101514.21;;;24.86;92.52
68712;BME280;55690;51.566;19.198;2023-07-13T14:11:56;101514.58;;;24.83;95.15
68712;BME280;55690;51.566;19.198;2023-07-13T14:15:58;101509.10;;;24.75;92.82
68712;BME280;55690;51.566;19.198;2023-07-13T14:20:00;101519.09;;;24.84;94.52
68712;BME280;55690;51.566;19.198;2023-07-13T14:24:01;101513.23;;;24.79;92.25
68712;BME280;55690;51.566;19.198;2023-07-13T14:28:14;101504.14;;;24.85;91.55
68712;BME280;55690;51.566;19.198;2023-07-13T14:32:14;101497.47;;;24.95;93.15
68712;BME280;55690;51.566;19.198;2023-07-13T14:40:30;101499.71;;;24.99;90.89
68712;BME280;55690;51.566;19.198;2023-07-13T14:44:33;101501.44;;;25.00;90.20
68712;BME280;55690;51.566;19.198;2023-07-13T14:48:34;101511.23;;;25.26;93.89
68712;BME280;55690;51.566;19.198;2023-07-13T14:52:35;101503.39;;;24.92;91.37
68712;BME280;55690;51.566;19.198;2023-07-13T14:56:37;101504.52;;;25.35;91.27
68712;BME280;55690;51.566;19.198;2023-07-13T15:00:38;101504.13;;;25.23;90.82
68712;BME280;55690;51.566;19.198;2023-07-13T15:04:41;101495.33;;;25.34;91.52
68712;BME280;55690;51.566;19.198;2023-07-13T15:08:42;101505.00;;;25.38;91.89
68712;BME280;55690;51.566;19.198;2023-07-13T15:12:44;101501.62;;;25.13;92.17
68712;BME280;55690;51.566;19.198;2023-07-13T15:16:48;101492.62;;;25.26;89.60
68712;BME280;55690;51.566;19.198;2023-07-13T15:20:52;101488.77;;;25.57;89.50
68712;BME280;55690;51.566;19.198;2023-07-13T15:24:55;101492.34;;;25.80;88.45
68712;BME280;55690;51.566;19.198;2023-07-13T15:28:57;101471.80;;;26.02;87.26
68712;BME280;55690;51.566;19.198;2023-07-13T15:33:05;101462.31;;;25.75;83.68
68712;BME280;55690;51.566;19.198;2023-07-13T15:37:15;101460.83;;;25.94;87.30
68712;BME280;55690;51.566;19.198;2023-07-13T15:41:23;101468.65;;;25.69;86.19
68712;BME280;55690;51.566;19.198;2023-07-13T15:45:25;101468.07;;;25.74;86.83
68712;BME280;55690;51.566;19.198;2023-07-13T15:49:27;101470.55;;;25.83;87.42
68712;BME280;55690;51.566;19.198;2023-07-13T15:53:32;101467.56;;;25.85;87.01
68712;BME280;55690;51.566;19.198;2023-07-13T15:57:35;101465.67;;;25.71;85.06
68712;BME280;55690;51.566;19.198;2023-07-13T16:01:41;101465.75;;;25.77;86.13
68712;BME280;55690;51.566;19.198;2023-07-13T16:05:52;101473.23;;;25.62;83.07
68712;BME280;55690;51.566;19.198;2023-07-13T16:09:55;101470.66;;;25.75;86.10
68712;BME280;55690;51.566;19.198;2023-07-13T16:14:00;101467.30;;;25.65;85.35
68712;BME280;55690;51.566;19.198;2023-07-13T16:18:05;101473.82;;;25.72;83.04
68712;BME280;55690;51.566;19.198;2023-07-13T16:22:17;101476.59;;;25.58;85.50
68712;BME280;55690;51.566;19.198;2023-07-13T16:30:29;101485.43;;;25.17;85.99
68712;BME280;55690;51.566;19.198;2023-07-13T16:34:34;101493.87;;;25.24;88.72
68712;BME280;55690;51.566;19.198;2023-07-13T16:38:39;101488.13;;;25.10;89.41
68712;BME280;55690;51.566;19.198;2023-07-13T16:42:45;101498.77;;;25.07;90.21
68712;BME280;55690;51.566;19.198;2023-07-13T16:46:53;101501.30;;;24.94;91.58
68712;BME280;55690;51.566;19.198;2023-07-13T16:51:01;101504.94;;;24.94;89.76
68712;BME280;55690;51.566;19.198;2023-07-13T16:55:10;101502.91;;;24.88;89.15
68712;BME280;55690;51.566;19.198;2023-07-13T16:59:17;101515.14;;;24.79;90.48
68712;BME280;55690;51.566;19.198;2023-07-13T17:03:20;101508.66;;;24.86;89.69
68712;BME280;55690;51.566;19.198;2023-07-13T17:07:22;101502.41;;;24.84;90.95
68712;BME280;55690;51.566;19.198;2023-07-13T17:11:28;101497.68;;;24.70;90.65
68712;BME280;55690;51.566;19.198;2023-07-13T17:15:35;101497.24;;;24.81;88.36
68712;BME280;55690;51.566;19.198;2023-07-13T17:19:41;101496.38;;;24.81;90.55
68712;BME280;55690;51.566;19.198;2023-07-13T17:23:46;101504.76;;;24.58;92.79
68712;BME280;55690;51.566;19.198;2023-07-13T17:27:53;101502.10;;;24.42;92.65
68712;BME280;55690;51.566;19.198;2023-07-13T17:31:59;101507.23;;;24.53;93.13
68712;BME280;55690;51.566;19.198;2023-07-13T17:36:10;101526.97;;;24.58;92.69
68712;BME280;55690;51.566;19.198;2023-07-13T17:40:14;101538.56;;;23.77;89.39
68712;BME280;55690;51.566;19.198;2023-07-13T17:44:19;101522.06;;;23.36;83.31
68712;BME280;55690;51.566;19.198;2023-07-13T17:48:24;101521.39;;;23.26;85.44
68712;BME280;55690;51.566;19.198;2023-07-13T17:52:30;101505.38;;;23.44;84.96
68712;BME280;55690;51.566;19.198;2023-07-13T17:56:36;101518.55;;;23.42;87.62
68712;BME280;55690;51.566;19.198;2023-07-13T18:00:43;101528.59;;;23.43;87.50
68712;BME280;55690;51.566;19.198;2023-07-13T18:04:49;101541.93;;;23.56;91.89
68712;BME280;55690;51.566;19.198;2023-07-13T18:08:57;101561.28;;;22.93;86.34
68712;BME280;55690;51.566;19.198;2023-07-13T18:13:00;101556.73;;;22.75;83.06
68712;BME280;55690;51.566;19.198;2023-07-13T18:17:10;101552.39;;;22.56;82.16
68712;BME280;55690;51.566;19.198;2023-07-13T18:21:14;101564.36;;;22.49;82.13
68712;BME280;55690;51.566;19.198;2023-07-13T18:25:21;101558.63;;;22.42;83.39
68712;BME280;55690;51.566;19.198;2023-07-13T18:29:25;101562.71;;;22.06;83.83
68712;BME280;55690;51.566;19.198;2023-07-13T18:33:32;101573.94;;;22.04;85.02
68712;BME280;55690;51.566;19.198;2023-07-13T18:37:37;101575.69;;;22.21;85.66
68712;BME280;55690;51.566;19.198;2023-07-13T18:41:44;101577.96;;;22.26;85.21
68712;BME280;55690;51.566;19.198;2023-07-13T18:45:56;101578.10;;;22.16;85.54
68712;BME280;55690;51.566;19.198;2023-07-13T18:49:59;101579.13;;;22.15;85.67
68712;BME280;55690;51.566;19.198;2023-07-13T18:54:02;101589.72;;;22.28;86.64
68712;BME280;55690;51.566;19.198;2023-07-13T18:58:08;101595.23;;;22.20;85.37
68712;BME280;55690;51.566;19.198;2023-07-13T19:02:16;101601.27;;;22.07;86.66
68712;BME280;55690;51.566;19.198;2023-07-13T19:06:20;101610.92;;;22.03;87.25
68712;BME280;55690;51.566;19.198;2023-07-13T19:10:28;101609.73;;;22.06;88.10
68712;BME280;55690;51.566;19.198;2023-07-13T19:14:33;101612.27;;;21.99;87.37
68712;BME280;55690;51.566;19.198;2023-07-13T19:18:40;101612.02;;;21.84;88.53
68712;BME280;55690;51.566;19.198;2023-07-13T19:22:45;101608.50;;;21.74;90.77
68712;BME280;55690;51.566;19.198;2023-07-13T19:26:52;101610.82;;;21.53;91.04
68712;BME280;55690;51.566;19.198;2023-07-13T19:30:57;101603.77;;;21.58;89.83
68712;BME280;55690;51.566;19.198;2023-07-13T19:35:05;101623.01;;;21.42;92.19
68712;BME280;55690;51.566;19.198;2023-07-13T19:39:38;101614.88;;;21.41;91.97
68712;BME280;55690;51.566;19.198;2023-07-13T19:43:22;101623.17;;;21.41;90.22
68712;BME280;55690;51.566;19.198;2023-07-13T19:47:24;101636.38;;;21.29;90.56
68712;BME280;55690;51.566;19.198;2023-07-13T19:51:29;101645.49;;;21.21;91.50
68712;BME280;55690;51.566;19.198;2023-07-13T19:55:34;101638.59;;;21.25;90.11
68712;BME280;55690;51.566;19.198;2023-07-13T19:59:41;101645.62;;;21.20;91.33
68712;BME280;55690;51.566;19.198;2023-07-13T20:03:47;101642.79;;;21.12;90.54
68712;BME280;55690;51.566;19.198;2023-07-13T20:07:56;101651.16;;;20.84;93.83
68712;BME280;55690;51.566;19.198;2023-07-13T20:12:00;101637.63;;;20.73;93.45
68712;BME280;55690;51.566;19.198;2023-07-13T20:16:17;101650.86;;;20.70;93.10
68712;BME280;55690;51.566;19.198;2023-07-13T20:24:29;101665.60;;;20.61;94.15
68712;BME280;55690;51.566;19.198;2023-07-13T20:28:31;101661.11;;;20.59;95.08
68712;BME280;55690;51.566;19.198;2023-07-13T20:32:33;101661.66;;;20.63;93.84
68712;BME280;55690;51.566;19.198;2023-07-13T20:36:36;101660.70;;;20.54;94.33
68712;BME280;55690;51.566;19.198;2023-07-13T20:40:43;101661.73;;;20.53;94.31
68712;BME280;55690;51.566;19.198;2023-07-13T20:44:49;101664.33;;;20.55;94.65
68712;BME280;55690;51.566;19.198;2023-07-13T20:48:55;101677.31;;;20.45;93.97
68712;BME280;55690;51.566;19.198;2023-07-13T20:53:01;101662.90;;;20.51;93.90
68712;BME280;55690;51.566;19.198;2023-07-13T20:57:08;101673.53;;;20.46;94.54
68712;BME280;55690;51.566;19.198;2023-07-13T21:05:39;101675.42;;;20.45;95.76
68712;BME280;55690;51.566;19.198;2023-07-13T21:09:41;101674.96;;;20.50;95.11
68712;BME280;55690;51.566;19.198;2023-07-13T21:13:43;101676.95;;;20.57;95.48
68712;BME280;55690;51.566;19.198;2023-07-13T21:17:46;101679.55;;;20.59;95.81
68712;BME280;55690;51.566;19.198;2023-07-13T21:21:48;101670.00;;;20.53;95.98
68712;BME280;55690;51.566;19.198;2023-07-13T21:25:50;101676.79;;;20.59;96.04
68712;BME280;55690;51.566;19.198;2023-07-13T21:29:56;101678.63;;;20.68;94.49
68712;BME280;55690;51.566;19.198;2023-07-13T21:34:14;101676.23;;;20.55;96.04
68712;BME280;55690;51.566;19.198;2023-07-13T21:38:22;101668.88;;;20.46;95.60
68712;BME280;55690;51.566;19.198;2023-07-13T21:42:24;101676.09;;;20.57;95.52
68712;BME280;55690;51.566;19.198;2023-07-13T21:46:27;101677.88;;;20.48;96.00